createdAt,value
2017-12-15T00:01:37.649Z,84.80
2017-12-15T00:04:05.780Z,84.80
2017-12-15T00:06:34.807Z,85.10
2017-12-15T00:09:06.433Z,83.90
2017-12-15T00:11:34.638Z,85.90
2017-12-15T00:14:02.797Z,85.90
2017-12-15T00:16:32.824Z,85.90
2017-12-15T00:19:01.930Z,84.00
2017-12-15T00:21:30.077Z,84.80
2017-12-15T00:23:58.258Z,83.10
2017-12-15T00:26:26.427Z,81.60
2017-12-15T00:28:54.575Z,82.90
2017-12-15T00:31:22.728Z,81.40
2017-12-15T00:33:50.884Z,82.70
2017-12-15T00:36:19.128Z,81.60
2017-12-15T00:38:47.311Z,83.10
2017-12-15T00:41:15.444Z,82.60
2017-12-15T00:43:43.592Z,82.40
2017-12-15T00:46:11.807Z,81.00
2017-12-15T00:48:40.002Z,84.10
2017-12-15T00:51:08.145Z,82.50
2017-12-15T00:53:36.290Z,83.90
2017-12-15T00:56:04.502Z,82.90
2017-12-15T17:43:52.031Z,88.60
2017-12-15T17:46:21.172Z,89.10
2017-12-15T17:48:49.336Z,90.10
2017-12-15T17:51:18.389Z,90.10
2017-12-15T17:53:46.561Z,90.50
2017-12-15T17:56:14.824Z,90.50
2017-12-15T17:58:42.986Z,91.20
2017-12-15T18:01:11.128Z,91.20
2017-12-15T18:03:40.197Z,90.80
2017-12-15T18:06:12.252Z,90.80
2017-12-15T18:08:41.934Z,90.80
2017-12-15T18:11:10.150Z,90.70
2017-12-15T18:13:40.150Z,90.80
2017-12-15T18:16:08.426Z,90.40
2017-12-15T18:18:37.370Z,88.90
2017-12-15T18:21:05.959Z,90.10
2017-12-15T18:23:35.031Z,89.40
2017-12-15T18:26:04.082Z,88.60
2017-12-15T18:28:32.834Z,88.50
2017-12-15T18:31:01.009Z,88.20
2017-12-15T18:33:29.725Z,89.20
2017-12-15T18:36:01.528Z,87.70
2017-12-15T18:38:34.226Z,87.30
2017-12-15T18:41:02.392Z,87.20
2017-12-15T18:43:32.563Z,87.60
2017-12-15T18:46:02.518Z,87.80
2017-12-15T18:48:30.697Z,88.50
2017-12-15T18:51:03.758Z,88.80
2017-12-15T18:53:34.430Z,87.20
2017-12-15T18:56:05.745Z,87.40
2017-12-15T18:58:33.897Z,88.20
2017-12-15T19:01:02.073Z,88.60
2017-12-15T19:03:30.880Z,88.00
2017-12-15T19:05:59.652Z,88.10
2017-12-15T19:08:27.805Z,88.60
2017-12-15T19:10:55.973Z,87.70
2017-12-15T19:13:24.130Z,87.10
2017-12-15T19:15:53.294Z,86.80
2017-12-15T19:18:22.214Z,85.60
2017-12-15T19:20:50.354Z,85.50
2017-12-15T19:23:19.237Z,85.20
2017-12-15T19:25:48.403Z,85.70
2017-12-15T19:28:16.569Z,86.70
2017-12-15T19:30:46.880Z,85.20
2017-12-15T19:33:15.151Z,87.50
2017-12-15T19:35:45.476Z,89.70
2017-12-15T19:38:14.636Z,90.00
2017-12-15T19:40:43.804Z,90.40
2017-12-15T19:43:12.236Z,90.50
2017-12-15T19:45:42.550Z,91.00
2017-12-15T19:48:10.826Z,91.20
2017-12-15T19:50:44.503Z,90.80
2017-12-15T19:53:13.041Z,90.80
2017-12-15T19:55:42.215Z,90.50
2017-12-15T19:58:11.222Z,90.30
2017-12-15T20:00:39.393Z,90.30
2017-12-15T20:03:08.446Z,90.20
2017-12-15T20:05:38.183Z,89.20
2017-12-15T20:08:06.326Z,89.10
2017-12-15T20:10:35.619Z,88.70
2017-12-15T20:13:03.796Z,88.70
2017-12-15T20:15:32.841Z,88.50
2017-12-15T20:18:01.002Z,88.00
2017-12-15T20:20:30.857Z,84.10
2017-12-15T20:22:59.055Z,84.10
2017-12-15T20:25:32.050Z,84.90
2017-12-15T20:28:00.475Z,85.80
2017-12-15T20:30:30.165Z,86.60
2017-12-15T20:32:59.947Z,86.80
2017-12-15T20:35:30.090Z,86.80
2017-12-15T20:37:58.331Z,86.60
2017-12-15T20:40:27.476Z,86.00
2017-12-15T20:42:55.707Z,86.30
2017-12-15T20:45:24.962Z,86.00
2017-12-15T20:47:53.106Z,86.20
2017-12-15T20:50:22.836Z,86.80
2017-12-15T20:52:50.965Z,86.30
2017-12-15T20:55:19.189Z,85.40
2017-12-15T20:57:47.610Z,83.10
2017-12-15T21:00:17.363Z,79.60
2017-12-15T21:02:45.518Z,81.60
2017-12-15T21:05:15.371Z,84.00
2017-12-15T21:07:43.524Z,85.60
2017-12-15T21:10:12.454Z,87.20
2017-12-15T21:12:40.617Z,87.20
2017-12-15T21:15:11.630Z,88.60
2017-12-15T21:17:39.824Z,88.70
2017-12-15T21:20:07.988Z,88.60
2017-12-15T21:22:37.124Z,89.50
2017-12-15T21:25:10.462Z,89.40
2017-12-15T21:27:38.626Z,84.90
2017-12-15T21:30:09.401Z,84.20
2017-12-15T21:32:37.561Z,86.10
2017-12-15T21:35:11.092Z,86.40
2017-12-15T21:37:39.234Z,86.40
2017-12-15T21:40:07.500Z,88.00
2017-12-15T21:42:36.002Z,88.30
2017-12-15T21:45:15.387Z,89.30
2017-12-15T21:47:44.129Z,89.10
2017-12-15T21:50:12.466Z,88.30
2017-12-15T21:52:40.659Z,88.90
2017-12-15T21:55:09.842Z,88.10
2017-12-15T21:57:40.425Z,84.90
2017-12-15T22:00:09.443Z,83.20
2017-12-15T22:02:38.465Z,83.30
2017-12-15T22:05:11.132Z,80.40
2017-12-15T22:07:39.294Z,82.90
2017-12-15T22:10:07.569Z,84.50
2017-12-15T22:12:35.744Z,86.40
2017-12-15T22:15:04.005Z,87.10
2017-12-15T22:17:33.255Z,87.90
2017-12-15T22:20:01.433Z,87.10
2017-12-15T22:22:30.434Z,86.50
2017-12-15T22:24:58.643Z,86.50
2017-12-15T22:27:26.824Z,86.30
2017-12-15T22:29:54.985Z,85.80
2017-12-15T22:32:24.427Z,86.40
2017-12-15T22:34:52.917Z,84.20
2017-12-15T22:37:21.659Z,81.30
2017-12-15T22:39:49.816Z,80.30
2017-12-15T22:42:18.144Z,81.90
2017-12-15T22:44:47.075Z,85.30
2017-12-15T22:47:15.234Z,85.00
2017-12-15T22:49:43.388Z,85.20
2017-12-15T22:52:11.545Z,86.60
2017-12-15T22:54:39.728Z,87.30
2017-12-15T22:57:07.875Z,88.10
2017-12-15T22:59:36.030Z,87.70
2017-12-15T23:02:04.188Z,86.80
2017-12-15T23:04:32.340Z,86.30
2017-12-15T23:07:00.652Z,86.40
2017-12-15T23:09:29.124Z,81.70
2017-12-15T23:11:57.283Z,79.10
2017-12-15T23:14:26.198Z,82.30
2017-12-15T23:16:54.354Z,82.30
2017-12-15T23:19:23.058Z,83.00
2017-12-15T23:21:51.263Z,84.30
2017-12-15T23:24:20.225Z,85.70
2017-12-15T23:26:49.472Z,86.20
2017-12-15T23:29:18.228Z,86.90
2017-12-15T23:31:46.386Z,86.60
2017-12-15T23:34:14.575Z,85.80
2017-12-15T23:36:42.840Z,86.00
2017-12-15T23:39:11.030Z,82.40
2017-12-15T23:41:39.192Z,80.40
2017-12-15T23:44:07.324Z,77.70
2017-12-15T23:46:35.859Z,78.20
2017-12-15T23:49:04.010Z,81.80
2017-12-15T23:51:32.164Z,83.30
2017-12-15T23:54:01.649Z,83.70
2017-12-15T23:56:41.841Z,83.70
2017-12-15T23:59:10.017Z,80.00
